createdAt,value
2023-04-09T00:00:30.836Z,70.20
2023-04-09T00:02:58.785Z,68.73
2023-04-09T00:05:26.656Z,63.97
2023-04-09T00:07:54.568Z,66.27
2023-04-09T00:10:22.579Z,60.77
2023-04-09T00:12:50.472Z,61.83
2023-04-09T00:15:29.822Z,61.83
2023-04-09T00:17:59.319Z,59.50
2023-04-09T00:20:27.267Z,58.63
2023-04-09T00:22:56.288Z,53.60
2023-04-09T00:25:24.176Z,56.10
2023-04-09T00:27:52.062Z,60.07
2023-04-09T00:30:21.449Z,54.20
2023-04-09T00:32:49.263Z,62.27
2023-04-09T00:35:17.536Z,54.73
2023-04-09T00:37:45.291Z,61.33
2023-04-09T00:40:13.361Z,57.97
2023-04-09T00:42:41.681Z,63.10
2023-04-09T00:45:10.594Z,56.10
2023-04-09T00:47:39.754Z,57.03
2023-04-09T00:50:08.371Z,58.73
2023-04-09T00:52:36.173Z,57.87
2023-04-09T00:55:05.977Z,61.37
2023-04-09T00:57:33.852Z,57.47
2023-04-09T01:00:01.839Z,63.10
2023-04-09T01:02:30.979Z,59.07
2023-04-09T01:05:01.163Z,54.93
2023-04-09T01:07:38.908Z,58.80
2023-04-09T01:10:15.569Z,62.10
2023-04-09T01:12:53.249Z,63.90
2023-04-09T01:15:26.491Z,63.57
2023-04-09T01:18:00.363Z,51.90
2023-04-09T01:20:35.242Z,46.37
2023-04-09T01:23:15.575Z,49.47
2023-04-09T01:25:50.567Z,39.20
2023-04-09T01:28:22.341Z,39.67
2023-04-09T01:30:52.863Z,38.17
2023-04-09T01:33:22.202Z,32.73
2023-04-09T01:35:51.454Z,38.87
2023-04-09T01:38:21.449Z,32.63
2023-04-09T01:40:50.709Z,30.73
2023-04-09T01:43:21.142Z,29.80
2023-04-09T01:45:49.682Z,31.37
2023-04-09T01:48:18.109Z,29.93
2023-04-09T01:50:46.421Z,34.73
2023-04-09T01:53:14.786Z,32.77
2023-04-09T01:55:42.553Z,31.70
2023-04-09T01:58:10.293Z,33.47
2023-04-09T02:00:41.450Z,33.10
2023-04-09T02:03:17.419Z,35.83
2023-04-09T02:05:51.262Z,33.10
2023-04-09T02:08:22.878Z,31.53
2023-04-09T02:10:55.686Z,34.70
2023-04-09T02:13:25.814Z,35.10
2023-04-09T02:15:56.463Z,30.87
2023-04-09T02:18:25.127Z,30.33
2023-04-09T02:20:53.959Z,33.17
2023-04-09T02:23:21.993Z,35.17
2023-04-09T02:25:50.492Z,30.53
2023-04-09T02:28:18.184Z,32.80
2023-04-09T02:30:46.083Z,34.33
2023-04-09T02:33:15.331Z,33.77
2023-04-09T02:35:43.200Z,41.27
2023-04-09T02:38:13.719Z,38.73
2023-04-09T02:40:42.118Z,38.97
2023-04-09T02:43:10.125Z,38.30
2023-04-09T02:45:38.007Z,36.83
2023-04-09T02:48:06.405Z,33.43
2023-04-09T02:50:35.507Z,33.80
2023-04-09T02:53:03.287Z,30.83
2023-04-09T02:55:31.184Z,30.43
2023-04-09T02:57:58.878Z,29.00
2023-04-09T03:00:26.616Z,30.10
2023-04-09T03:02:54.464Z,31.13
2023-04-09T03:05:22.306Z,34.37
2023-04-09T03:07:51.682Z,34.73
2023-04-09T03:10:19.462Z,38.73
2023-04-09T03:12:47.940Z,40.30
2023-04-09T03:15:15.780Z,37.73
2023-04-09T03:17:43.577Z,34.33
2023-04-09T03:20:11.727Z,33.20
2023-04-09T03:22:40.244Z,37.77
2023-04-09T03:25:10.415Z,35.83
2023-04-09T03:27:38.132Z,35.47
2023-04-09T03:30:06.648Z,37.00
2023-04-09T03:32:34.404Z,36.53
2023-04-09T03:35:02.153Z,38.73
2023-04-09T03:37:29.965Z,35.43
2023-04-09T03:39:57.681Z,34.03
2023-04-09T03:42:26.743Z,34.73
2023-04-09T03:44:54.834Z,28.43
2023-04-09T03:47:22.625Z,32.07
2023-04-09T03:49:50.357Z,32.87
2023-04-09T03:52:18.176Z,31.97
2023-04-09T03:54:46.460Z,31.10
2023-04-09T03:57:14.248Z,35.73
2023-04-09T03:59:43.309Z,37.70
2023-04-09T04:02:11.109Z,39.73
2023-04-09T04:04:38.890Z,41.53
2023-04-09T04:07:07.748Z,37.43
2023-04-09T04:09:35.584Z,39.13
2023-04-09T04:12:03.392Z,42.63
2023-04-09T04:14:31.135Z,45.80
2023-04-09T04:17:00.192Z,40.80
2023-04-09T04:19:27.922Z,43.87
2023-04-09T04:21:55.678Z,47.93
2023-04-09T04:24:23.509Z,60.10
2023-04-09T04:26:51.252Z,51.23
2023-04-09T04:29:19.211Z,45.57
2023-04-09T04:31:47.069Z,44.77
2023-04-09T04:34:16.132Z,45.33
2023-04-09T04:36:43.880Z,44.60
2023-04-09T04:39:11.587Z,44.07
2023-04-09T04:41:39.334Z,41.07
2023-04-09T04:44:07.053Z,43.13
2023-04-09T04:46:34.904Z,39.83
2023-04-09T04:49:03.041Z,40.23
2023-04-09T04:51:33.244Z,39.97
2023-04-09T04:54:00.989Z,39.40
2023-04-09T04:56:28.736Z,40.87
2023-04-09T04:58:56.430Z,46.33
2023-04-09T05:01:24.265Z,43.83
2023-04-09T05:03:52.226Z,40.00
2023-04-09T05:06:20.111Z,44.60
2023-04-09T05:08:49.132Z,40.03
2023-04-09T05:11:16.967Z,45.53
2023-04-09T05:13:44.691Z,46.07
2023-04-09T05:16:17.537Z,41.57
2023-04-09T05:18:45.372Z,38.03
2023-04-09T05:21:13.116Z,38.77
2023-04-09T05:23:41.049Z,39.20
2023-04-09T05:26:10.679Z,38.63
2023-04-09T05:28:38.483Z,41.30
2023-04-09T05:31:11.174Z,39.20
2023-04-09T05:33:39.070Z,39.57
2023-04-09T05:36:07.975Z,39.53
2023-04-09T05:38:36.534Z,41.83
2023-04-09T05:41:04.313Z,40.47
2023-04-09T05:43:33.382Z,44.03
2023-04-09T05:46:01.431Z,42.30
2023-04-09T05:48:29.226Z,41.63
2023-04-09T05:50:58.499Z,44.20
2023-04-09T05:53:27.542Z,46.33
2023-04-09T05:55:55.543Z,46.30
2023-04-09T05:58:23.258Z,44.80
2023-04-09T06:00:52.625Z,45.50
2023-04-09T06:03:20.888Z,48.70
2023-04-09T06:05:49.178Z,43.20
2023-04-09T06:08:16.905Z,47.03
2023-04-09T06:10:44.664Z,45.33
2023-04-09T06:13:12.474Z,46.50
2023-04-09T06:15:40.582Z,49.93
2023-04-09T06:18:09.669Z,45.80
2023-04-09T06:20:37.460Z,48.53
2023-04-09T06:23:06.183Z,49.90
2023-04-09T06:25:33.963Z,44.80
2023-04-09T06:28:01.757Z,47.97
2023-04-09T06:30:31.845Z,48.33
2023-04-09T06:32:59.754Z,51.10
2023-04-09T06:35:28.970Z,51.80
2023-04-09T06:37:56.686Z,49.83
2023-04-09T06:40:24.439Z,57.27
2023-04-09T06:42:52.217Z,50.43
2023-04-09T06:45:19.972Z,49.67
2023-04-09T06:47:47.767Z,51.33
2023-04-09T06:50:15.513Z,55.07
2023-04-09T06:52:44.630Z,53.17
2023-04-09T06:55:12.447Z,50.37
2023-04-09T06:57:40.163Z,46.93
2023-04-09T07:00:09.672Z,50.20
2023-04-09T07:02:37.923Z,50.10
2023-04-09T07:05:06.504Z,48.30
2023-04-09T07:07:34.540Z,46.23
2023-04-09T07:10:03.640Z,49.70
2023-04-09T07:12:32.410Z,48.23
2023-04-09T07:15:00.273Z,45.17
2023-04-09T07:17:28.449Z,43.80
2023-04-09T07:19:56.496Z,39.87
2023-04-09T07:22:24.941Z,41.40
2023-04-09T07:24:55.059Z,38.90
2023-04-09T07:27:25.885Z,41.53
2023-04-09T07:29:55.427Z,44.53
2023-04-09T07:32:23.330Z,43.07
2023-04-09T07:34:52.581Z,38.53
2023-04-09T07:37:20.771Z,38.47
2023-04-09T07:39:48.746Z,37.13
2023-04-09T07:42:16.575Z,38.13
2023-04-09T07:44:45.649Z,41.63
2023-04-09T07:47:13.644Z,35.23
2023-04-09T07:49:41.565Z,35.93
2023-04-09T07:52:09.398Z,37.13
2023-04-09T07:54:37.149Z,37.13
2023-04-09T07:57:05.119Z,35.03
2023-04-09T07:59:32.877Z,35.17
2023-04-09T08:02:02.171Z,35.13
2023-04-09T08:04:30.789Z,36.53
2023-04-09T08:06:58.584Z,35.73
2023-04-09T08:09:26.386Z,35.83
2023-04-09T08:11:54.239Z,32.70
2023-04-09T08:14:22.150Z,36.97
2023-04-09T08:16:51.250Z,35.50
2023-04-09T08:19:20.979Z,33.33
2023-04-09T08:21:49.649Z,32.13
2023-04-09T08:24:18.304Z,30.85
2023-04-09T08:26:46.619Z,30.48
2023-04-09T08:29:16.147Z,27.05
2023-04-09T08:31:44.386Z,28.88
2023-04-09T08:34:13.042Z,30.23
2023-04-09T08:36:42.284Z,26.58
2023-04-09T08:39:10.064Z,29.52
2023-04-09T08:41:43.970Z,26.38
2023-04-09T08:44:11.950Z,25.85
2023-04-09T08:46:39.686Z,26.73
2023-04-09T08:49:10.139Z,25.27
2023-04-09T08:51:39.372Z,24.13
2023-04-09T08:54:08.666Z,22.67
2023-04-09T08:56:36.829Z,25.80
2023-04-09T08:59:05.462Z,25.42
2023-04-09T09:01:33.738Z,25.95
2023-04-09T09:04:04.333Z,23.02
2023-04-09T09:06:35.574Z,22.40
2023-04-09T09:09:05.415Z,22.90
2023-04-09T09:11:35.077Z,23.33
2023-04-09T09:14:04.453Z,23.58
2023-04-09T09:16:34.757Z,21.05
2023-04-09T09:19:03.361Z,23.83
2023-04-09T09:21:31.338Z,23.85
2023-04-09T09:23:59.208Z,22.30
2023-04-09T09:26:28.875Z,25.77
2023-04-09T09:28:59.309Z,23.95
2023-04-09T09:31:27.512Z,25.23
2023-04-09T09:33:55.653Z,25.65
2023-04-09T09:36:33.877Z,25.25
2023-04-09T09:39:10.153Z,23.42
2023-04-09T09:41:38.919Z,23.17
2023-04-09T09:44:08.699Z,22.92
2023-04-09T09:46:38.440Z,23.30
2023-04-09T09:49:06.861Z,25.02
2023-04-09T09:51:37.608Z,24.98
2023-04-09T09:54:07.940Z,26.10
2023-04-09T09:56:38.799Z,24.77
2023-04-09T09:59:16.770Z,25.23
2023-04-09T10:01:45.432Z,26.00
2023-04-09T10:04:15.833Z,24.15
2023-04-09T10:06:45.535Z,23.15
2023-04-09T10:09:14.569Z,22.95
2023-04-09T10:11:45.537Z,23.65
2023-04-09T10:14:15.416Z,21.52
2023-04-09T10:16:43.380Z,21.98
2023-04-09T10:19:14.250Z,24.92
2023-04-09T10:21:48.650Z,23.95
2023-04-09T10:24:17.986Z,23.60
2023-04-09T10:26:46.172Z,24.05
2023-04-09T10:29:17.007Z,22.98
2023-04-09T10:32:04.027Z,22.50
2023-04-09T10:34:38.118Z,22.73
2023-04-09T10:37:09.616Z,22.27
2023-04-09T10:39:42.450Z,23.20
2023-04-09T10:42:14.926Z,22.38
2023-04-09T10:44:44.541Z,21.60
2023-04-09T10:47:13.044Z,22.05
2023-04-09T10:49:42.840Z,22.15
2023-04-09T10:52:13.805Z,24.48
2023-04-09T10:54:45.599Z,22.45
2023-04-09T10:57:18.987Z,21.23
2023-04-09T10:59:50.823Z,19.48
2023-04-09T11:02:49.944Z,20.50
2023-04-09T11:05:26.428Z,20.67
2023-04-09T11:07:59.430Z,23.70
2023-04-09T11:10:28.406Z,21.05
2023-04-09T11:12:56.344Z,21.40
2023-04-09T11:15:25.570Z,22.10
2023-04-09T11:17:53.647Z,23.65
2023-04-09T11:20:23.527Z,26.60
2023-04-09T11:22:53.192Z,22.45
2023-04-09T11:25:22.513Z,24.20
2023-04-09T11:27:51.111Z,23.83
2023-04-09T11:30:19.332Z,22.80
2023-04-09T11:32:49.871Z,22.73
2023-04-09T11:35:19.350Z,23.20
2023-04-09T11:37:47.914Z,24.27
2023-04-09T11:40:21.135Z,24.50
2023-04-09T11:42:51.184Z,23.52
2023-04-09T11:45:19.802Z,22.92
2023-04-09T11:47:49.792Z,22.77
2023-04-09T11:50:17.860Z,21.65
2023-04-09T11:52:46.798Z,21.95
2023-04-09T11:55:24.684Z,24.20
2023-04-09T11:57:54.203Z,23.58
2023-04-09T12:00:24.783Z,23.63
2023-04-09T12:03:03.270Z,22.50
2023-04-09T12:05:35.346Z,21.38
2023-04-09T12:08:05.085Z,24.60
2023-04-09T12:10:34.453Z,23.75
2023-04-09T12:13:04.580Z,23.70
2023-04-09T12:15:34.211Z,24.48
2023-04-09T12:18:04.183Z,24.58
2023-04-09T12:20:34.885Z,28.08
2023-04-09T12:23:04.558Z,23.83
2023-04-09T12:25:32.938Z,23.13
2023-04-09T12:28:00.716Z,21.83
2023-04-09T12:30:28.750Z,33.85
2023-04-09T12:32:56.871Z,24.50
2023-04-09T12:35:26.225Z,25.52
2023-04-09T12:37:54.673Z,26.55
2023-04-09T12:40:23.038Z,25.48
2023-04-09T12:42:50.842Z,24.75
2023-04-09T12:45:20.285Z,26.38
2023-04-09T12:47:48.150Z,27.80
2023-04-09T12:50:16.739Z,24.80
2023-04-09T12:52:46.704Z,25.75
2023-04-09T12:55:15.568Z,25.02
2023-04-09T12:57:46.898Z,27.00
2023-04-09T13:00:15.953Z,24.45
2023-04-09T13:02:43.900Z,26.17
2023-04-09T13:05:12.072Z,23.52
2023-04-09T13:07:40.869Z,23.70
2023-04-09T13:10:12.221Z,23.60
2023-04-09T13:12:40.072Z,20.70
2023-04-09T13:15:08.558Z,23.20
2023-04-09T13:17:36.356Z,23.02
2023-04-09T13:20:04.655Z,16.98
2023-04-09T13:22:32.592Z,20.15
2023-04-09T13:25:00.562Z,20.45
2023-04-09T13:27:29.746Z,20.95
2023-04-09T13:29:57.532Z,21.77
2023-04-09T13:32:25.412Z,19.70
2023-04-09T13:34:54.180Z,18.77
2023-04-09T13:37:22.061Z,19.20
2023-04-09T13:39:50.512Z,19.70
2023-04-09T13:42:18.430Z,17.90
2023-04-09T13:44:47.573Z,18.17
2023-04-09T13:47:16.815Z,18.63
2023-04-09T13:49:44.830Z,17.92
2023-04-09T13:52:12.996Z,16.92
2023-04-09T13:54:41.210Z,16.42
2023-04-09T13:57:10.280Z,17.38
2023-04-09T13:59:39.004Z,15.55
2023-04-09T14:02:08.244Z,17.45
2023-04-09T14:04:36.220Z,18.02
2023-04-09T14:07:04.142Z,18.85
2023-04-09T14:09:31.992Z,15.70
2023-04-09T14:11:59.739Z,16.23
2023-04-09T14:14:27.632Z,16.02
2023-04-09T14:16:55.422Z,15.73
2023-04-09T14:19:24.607Z,15.00
2023-04-09T14:21:53.270Z,16.98
2023-04-09T14:24:23.096Z,14.52
2023-04-09T14:26:53.608Z,16.90
2023-04-09T14:29:22.504Z,18.58
2023-04-09T14:31:51.743Z,14.70
2023-04-09T14:34:19.569Z,15.38
2023-04-09T14:36:48.622Z,14.30
2023-04-09T14:39:16.536Z,15.13
2023-04-09T14:41:44.341Z,15.48
2023-04-09T14:44:12.139Z,17.35
2023-04-09T14:46:39.889Z,17.15
2023-04-09T14:49:07.719Z,17.60
2023-04-09T14:51:35.553Z,15.23
2023-04-09T14:54:04.972Z,13.25
2023-04-09T14:56:32.771Z,13.23
2023-04-09T14:59:00.717Z,12.07
2023-04-09T15:01:28.722Z,12.38
2023-04-09T15:03:57.010Z,12.82
2023-04-09T15:06:24.994Z,14.93
2023-04-09T15:08:52.848Z,16.00
2023-04-09T15:11:23.073Z,13.82
2023-04-09T15:13:52.169Z,12.88
2023-04-09T15:16:23.984Z,12.93
2023-04-09T15:18:52.712Z,13.82
2023-04-09T15:21:20.730Z,12.98
2023-04-09T15:23:48.544Z,13.57
2023-04-09T15:26:17.007Z,12.20
2023-04-09T15:28:46.941Z,12.18
2023-04-09T15:31:14.714Z,12.23
2023-04-09T15:33:43.811Z,12.75
2023-04-09T15:36:11.997Z,11.65
2023-04-09T15:38:39.823Z,13.18
2023-04-09T15:41:07.650Z,10.98
2023-04-09T15:43:35.487Z,12.70
2023-04-09T15:46:10.767Z,13.73
2023-04-09T15:48:38.989Z,11.88
2023-04-09T15:51:07.264Z,12.55
2023-04-09T15:53:35.174Z,11.55
2023-04-09T15:56:03.839Z,13.90
2023-04-09T15:58:31.679Z,13.27
2023-04-09T16:00:59.634Z,14.15
2023-04-09T16:03:28.778Z,13.05
2023-04-09T16:05:56.535Z,11.10
2023-04-09T16:08:26.280Z,10.27
2023-04-09T16:10:54.070Z,12.30
2023-04-09T16:13:21.805Z,13.48
2023-04-09T16:15:51.098Z,14.48
2023-04-09T16:18:19.407Z,14.27
2023-04-09T16:20:48.736Z,13.43
2023-04-09T16:23:16.453Z,12.35
2023-04-09T16:25:44.320Z,12.25
2023-04-09T16:28:12.136Z,11.27
2023-04-09T16:30:39.894Z,11.52
2023-04-09T16:33:08.732Z,11.40
2023-04-09T16:35:39.314Z,14.25
2023-04-09T16:38:08.937Z,13.18
2023-04-09T16:40:36.728Z,12.30
2023-04-09T16:43:04.688Z,11.95
2023-04-09T16:45:32.808Z,10.23
2023-04-09T16:48:00.824Z,12.73
2023-04-09T16:50:28.718Z,15.93
2023-04-09T16:52:56.663Z,12.75
2023-04-09T16:55:26.018Z,13.00
2023-04-09T16:57:55.970Z,15.07
2023-04-09T17:00:24.236Z,18.05
2023-04-09T17:02:52.322Z,17.88
2023-04-09T17:05:20.474Z,16.60
2023-04-09T17:07:48.284Z,17.13
2023-04-09T17:10:16.219Z,18.48
2023-04-09T17:12:45.354Z,18.52
2023-04-09T17:15:13.143Z,17.48
2023-04-09T17:17:41.154Z,18.67
2023-04-09T17:20:09.841Z,19.63
2023-04-09T17:22:38.240Z,17.05
2023-04-09T17:25:06.633Z,16.58
2023-04-09T17:27:34.562Z,17.88
2023-04-09T17:30:04.294Z,18.38
2023-04-09T17:32:32.297Z,17.27
2023-04-09T17:35:00.528Z,18.15
2023-04-09T17:37:29.554Z,16.55
2023-04-09T17:39:57.302Z,18.30
2023-04-09T17:42:25.181Z,19.02
2023-04-09T17:44:53.608Z,18.95
2023-04-09T17:47:22.992Z,18.20
2023-04-09T17:49:50.774Z,18.00
2023-04-09T17:52:18.665Z,17.67
2023-04-09T17:54:46.664Z,18.17
2023-04-09T17:57:15.501Z,17.67
2023-04-09T17:59:43.479Z,18.48
2023-04-09T18:02:11.764Z,18.70
2023-04-09T18:04:41.725Z,19.42
2023-04-09T18:07:09.956Z,19.73
2023-04-09T18:09:39.108Z,18.70
2023-04-09T18:12:06.970Z,21.63
2023-04-09T18:14:34.790Z,22.00
2023-04-09T18:17:04.607Z,20.27
2023-04-09T18:19:32.476Z,21.73
2023-04-09T18:22:01.550Z,19.50
2023-04-09T18:24:30.263Z,22.07
2023-04-09T18:26:58.163Z,24.07
2023-04-09T18:29:27.496Z,21.73
2023-04-09T18:31:56.092Z,22.47
2023-04-09T18:34:24.456Z,24.50
2023-04-09T18:36:53.286Z,20.13
2023-04-09T18:39:22.887Z,22.17
2023-04-09T18:41:51.147Z,21.70
2023-04-09T18:44:19.004Z,26.37
2023-04-09T18:46:47.054Z,24.73
2023-04-09T18:49:14.818Z,25.40
2023-04-09T18:51:42.587Z,23.53
2023-04-09T18:54:10.320Z,26.40
2023-04-09T18:56:39.448Z,24.37
2023-04-09T18:59:07.214Z,21.27
2023-04-09T19:01:35.041Z,22.37
2023-04-09T19:04:03.012Z,26.70
2023-04-09T19:06:33.123Z,29.03
2023-04-09T19:09:01.227Z,24.83
2023-04-09T19:11:29.163Z,24.73
2023-04-09T19:13:58.282Z,23.27
2023-04-09T19:16:26.137Z,28.40
2023-04-09T19:18:54.130Z,27.10
2023-04-09T19:21:22.400Z,25.63
2023-04-09T19:23:50.184Z,27.60
2023-04-09T19:26:18.177Z,24.33
2023-04-09T19:28:46.017Z,28.53
2023-04-09T19:31:16.092Z,26.70
2023-04-09T19:33:44.072Z,26.37
2023-04-09T19:36:12.960Z,24.43
2023-04-09T19:38:40.815Z,24.60
2023-04-09T19:41:08.660Z,34.33
2023-04-09T19:43:38.689Z,43.07
2023-04-09T19:46:08.425Z,35.53
2023-04-09T19:48:38.262Z,31.17
2023-04-09T19:51:06.823Z,31.10
2023-04-09T19:53:36.316Z,35.93
2023-04-09T19:56:04.220Z,32.53
2023-04-09T19:58:32.754Z,32.63
2023-04-09T20:01:00.508Z,32.87
2023-04-09T20:03:28.624Z,38.97
2023-04-09T20:05:57.768Z,42.83
2023-04-09T20:08:25.558Z,41.10
2023-04-09T20:10:53.337Z,36.40
2023-04-09T20:13:21.102Z,38.37
2023-04-09T20:15:49.877Z,38.13
2023-04-09T20:18:17.618Z,40.37
2023-04-09T20:20:45.368Z,46.80
2023-04-09T20:23:14.453Z,43.53
2023-04-09T20:25:42.248Z,48.07
2023-04-09T20:28:10.012Z,48.43
2023-04-09T20:30:37.805Z,46.23
2023-04-09T20:33:05.696Z,41.37
2023-04-09T20:35:35.372Z,45.50
2023-04-09T20:38:03.209Z,41.00
2023-04-09T20:40:32.604Z,41.70
2023-04-09T20:43:00.577Z,44.13
2023-04-09T20:45:28.325Z,44.37
2023-04-09T20:47:56.246Z,41.23
2023-04-09T20:50:24.181Z,42.20
2023-04-09T20:52:51.957Z,38.40
2023-04-09T20:55:19.818Z,37.80
2023-04-09T20:57:49.199Z,41.10
2023-04-09T21:00:17.183Z,40.47
2023-04-09T21:02:45.094Z,42.67
2023-04-09T21:05:22.629Z,38.90
2023-04-09T21:07:51.668Z,38.67
2023-04-09T21:10:19.478Z,37.33
2023-04-09T21:12:48.591Z,37.03
2023-04-09T21:15:16.604Z,40.70
2023-04-09T21:17:44.446Z,37.23
2023-04-09T21:20:12.758Z,34.53
2023-04-09T21:22:40.548Z,35.03
2023-04-09T21:25:08.978Z,38.50
2023-04-09T21:27:36.784Z,36.70
2023-04-09T21:30:06.852Z,33.57
2023-04-09T21:32:34.961Z,34.53
2023-04-09T21:35:02.853Z,33.43
2023-04-09T21:37:31.973Z,36.30
2023-04-09T21:39:59.703Z,32.70
2023-04-09T21:42:27.570Z,35.80
2023-04-09T21:44:55.284Z,36.10
2023-04-09T21:47:24.588Z,34.73
2023-04-09T21:49:52.330Z,36.40
2023-04-09T21:52:20.078Z,37.97
2023-04-09T21:54:47.788Z,36.87
2023-04-09T21:57:15.919Z,43.80
2023-04-09T21:59:43.731Z,39.90
2023-04-09T22:02:11.766Z,42.40
2023-04-09T22:04:42.625Z,37.97
2023-04-09T22:07:11.347Z,37.90
2023-04-09T22:09:39.309Z,34.03
2023-04-09T22:12:07.235Z,41.17
2023-04-09T22:14:34.968Z,38.20
2023-04-09T22:17:03.159Z,39.60
2023-04-09T22:19:32.262Z,35.07
2023-04-09T22:22:01.352Z,37.83
2023-04-09T22:24:30.229Z,36.77
2023-04-09T22:26:59.155Z,36.00
2023-04-09T22:29:27.702Z,36.70
2023-04-09T22:31:55.743Z,33.50
2023-04-09T22:34:23.621Z,38.90
2023-04-09T22:36:51.529Z,38.07
2023-04-09T22:39:21.406Z,41.23
2023-04-09T22:41:49.199Z,30.67
2023-04-09T22:44:17.364Z,34.27
2023-04-09T22:46:45.224Z,32.57
2023-04-09T22:49:13.117Z,33.57
2023-04-09T22:51:41.734Z,35.50
2023-04-09T22:54:09.987Z,34.40
2023-04-09T22:56:39.660Z,36.20
2023-04-09T22:59:07.460Z,33.10
2023-04-09T23:01:35.602Z,34.47
2023-04-09T23:04:03.436Z,33.37
2023-04-09T23:06:31.962Z,35.40
2023-04-09T23:08:59.992Z,34.33
2023-04-09T23:11:28.153Z,35.20
2023-04-09T23:13:57.316Z,34.07
2023-04-09T23:16:25.099Z,32.80
2023-04-09T23:18:53.170Z,30.37
2023-04-09T23:21:21.112Z,35.03
2023-04-09T23:23:48.988Z,35.03
2023-04-09T23:26:16.771Z,34.97
2023-04-09T23:28:44.495Z,41.03
2023-04-09T23:31:13.650Z,38.00
2023-04-09T23:33:41.396Z,36.80
2023-04-09T23:36:09.793Z,34.97
2023-04-09T23:38:40.129Z,34.83
2023-04-09T23:41:08.034Z,36.13
2023-04-09T23:43:35.812Z,33.90
2023-04-09T23:46:03.563Z,34.57
2023-04-09T23:48:32.624Z,36.33
2023-04-09T23:51:00.363Z,36.50
2023-04-09T23:53:28.130Z,39.50
2023-04-09T23:55:55.905Z,41.33
2023-04-09T23:58:23.672Z,36.57
